Time;durP1;ratioP1;P1;durP2;ratioP2;P2;SDS_P1;SDS_P2;PMS_P1;PMS_P2;Temp;Humidity;BMP_temperature;BMP_pressure;BME280_temperature;BME280_humidity;BME280_pressure;Samples;Min_cycle;Max_cycle;Signal;HPM_P1;HPM_P2
2022/07/30 00:01:13;;;;;;;5.38;3.17;;;16.50;99.90;;;;;;5030508;28;20118;-70
2022/07/30 00:03:38;;;;;;;3.05;2.55;;;16.50;99.90;;;;;;5025033;28;20041;-71
2022/07/30 00:06:04;;;;;;;3.97;2.53;;;16.50;99.90;;;;;;5021791;28;20523;-70
2022/07/30 00:08:30;;;;;;;3.05;2.55;;;16.50;99.90;;;;;;5027124;28;20026;-71
2022/07/30 00:10:55;;;;;;;3.83;2.67;;;16.50;99.90;;;;;;5019839;28;20497;-70
2022/07/30 00:13:21;;;;;;;4.03;2.58;;;16.50;99.90;;;;;;5009658;28;20033;-70
2022/07/30 00:15:46;;;;;;;6.05;2.75;;;16.50;99.90;;;;;;5022526;28;20022;-70
2022/07/30 00:18:12;;;;;;;5.93;2.70;;;16.50;99.90;;;;;;5034119;28;20465;-70
2022/07/30 00:20:39;;;;;;;3.70;2.72;;;16.50;99.90;;;;;;5016097;28;20041;-70
2022/07/30 00:23:05;;;;;;;3.47;2.50;;;16.50;99.90;;;;;;5034148;28;20060;-70
2022/07/30 00:25:31;;;;;;;4.00;2.60;;;16.50;99.90;;;;;;5019776;28;20017;-71
2022/07/30 00:27:57;;;;;;;4.05;2.70;;;16.50;99.90;;;;;;5025073;28;20477;-70
2022/07/30 00:30:22;;;;;;;4.72;2.78;;;16.50;99.90;;;;;;5027978;28;20079;-71
2022/07/30 00:32:48;;;;;;;3.20;2.67;;;16.50;99.90;;;;;;5021397;28;20029;-71
2022/07/30 00:35:14;;;;;;;3.05;2.50;;;16.60;99.90;;;;;;5003271;28;20030;-70
2022/07/30 00:37:39;;;;;;;3.13;2.58;;;16.60;99.90;;;;;;5027944;28;20034;-71
2022/07/30 00:40:07;;;;;;;3.88;2.72;;;16.60;99.90;;;;;;5013939;28;20422;-71
2022/07/30 00:42:37;;;;;;;3.95;2.50;;;16.60;99.90;;;;;;5028213;28;20148;-71
2022/07/30 00:45:05;;;;;;;4.65;3.00;;;16.60;99.90;;;;;;5024092;28;20029;-70
2022/07/30 00:47:30;;;;;;;4.13;2.85;;;16.50;99.90;;;;;;5033647;28;20025;-71
2022/07/30 00:49:56;;;;;;;4.85;2.85;;;16.50;99.90;;;;;;5033805;28;20033;-71
2022/07/30 00:52:21;;;;;;;5.18;2.72;;;16.50;99.90;;;;;;5023480;28;20033;-70
2022/07/30 00:54:47;;;;;;;5.60;2.58;;;16.50;99.90;;;;;;5029800;28;20029;-71
2022/07/30 00:57:12;;;;;;;6.03;2.80;;;16.50;99.90;;;;;;5033791;28;20025;-70
2022/07/30 00:59:38;;;;;;;4.70;2.47;;;16.50;99.90;;;;;;5019191;28;20034;-70
2022/07/30 01:02:03;;;;;;;5.75;2.70;;;16.50;99.90;;;;;;5033293;28;20052;-70
2022/07/30 01:04:29;;;;;;;6.10;2.88;;;16.50;99.90;;;;;;5033618;28;20025;-70
2022/07/30 01:06:55;;;;;;;3.05;2.65;;;16.50;99.90;;;;;;5019249;28;20016;-71
2022/07/30 01:09:21;;;;;;;4.88;2.72;;;16.50;99.90;;;;;;5033374;28;20026;-71
2022/07/30 01:11:46;;;;;;;3.28;2.53;;;16.50;99.90;;;;;;5018818;28;20776;-71
2022/07/30 01:14:12;;;;;;;4.53;2.83;;;16.50;99.90;;;;;;4995903;28;20030;-71
2022/07/30 01:16:40;;;;;;;5.28;2.70;;;16.50;99.90;;;;;;5013399;28;20486;-71
2022/07/30 01:22:08;;;;;;;2.97;2.30;;;16.50;99.90;;;;;;5012101;28;20438;-70
2022/07/30 01:24:38;;;;;;;6.57;3.10;;;16.50;99.90;;;;;;5016799;28;20022;-71
2022/07/30 01:27:06;;;;;;;3.28;2.72;;;16.50;99.90;;;;;;5004827;28;20022;-71
2022/07/30 01:29:33;;;;;;;5.85;2.85;;;16.50;99.90;;;;;;5032914;28;20021;-70
2022/07/30 01:31:59;;;;;;;10.73;3.13;;;16.50;99.90;;;;;;5021381;28;20069;-71
2022/07/30 01:34:28;;;;;;;5.45;2.95;;;16.50;99.90;;;;;;5013082;28;20109;-71
2022/07/30 01:36:57;;;;;;;4.38;2.70;;;16.40;99.90;;;;;;5021172;28;20105;-71
2022/07/30 01:39:25;;;;;;;5.55;3.13;;;16.40;99.90;;;;;;5012898;28;20022;-71
2022/07/30 01:41:53;;;;;;;4.13;2.80;;;16.40;99.90;;;;;;5013167;28;20532;-71
2022/07/30 01:44:19;;;;;;;4.20;2.53;;;16.40;99.90;;;;;;5012909;28;20092;-71
2022/07/30 01:46:46;;;;;;;6.75;3.10;;;16.40;99.90;;;;;;5012861;28;20043;-71
2022/07/30 01:49:12;;;;;;;4.72;3.15;;;16.40;99.90;;;;;;5012703;28;20037;-71
2022/07/30 01:51:38;;;;;;;5.82;3.08;;;16.40;99.90;;;;;;5012937;28;20030;-71
2022/07/30 01:54:08;;;;;;;4.57;3.10;;;16.40;99.90;;;;;;5012990;28;20034;-71
2022/07/30 01:56:34;;;;;;;4.13;3.13;;;16.40;99.90;;;;;;5026719;28;20018;-71
2022/07/30 01:59:01;;;;;;;3.72;2.95;;;16.30;99.90;;;;;;5021770;28;20033;-71
2022/07/30 02:01:27;;;;;;;5.10;2.58;;;16.40;99.90;;;;;;5032075;28;20429;-71
2022/07/30 02:03:53;;;;;;;5.60;3.20;;;16.30;99.90;;;;;;5032310;28;20026;-70
2022/07/30 02:06:26;;;;;;;6.53;3.20;;;16.30;99.90;;;;;;5032384;28;20352;-70
2022/07/30 02:09:00;;;;;;;6.32;3.10;;;16.30;99.90;;;;;;5032518;28;20072;-70
2022/07/30 02:14:23;;;;;;;7.65;3.45;;;16.30;99.90;;;;;;5017548;28;20437;-71
2022/07/30 02:16:55;;;;;;;16.92;3.72;;;16.30;99.90;;;;;;5032190;28;20320;-70
2022/07/30 02:19:25;;;;;;;5.65;3.15;;;16.20;99.90;;;;;;5031791;28;20032;-70
2022/07/30 02:21:58;;;;;;;7.20;2.72;;;16.20;99.90;;;;;;5031008;28;20033;-70
2022/07/30 02:24:28;;;;;;;5.22;3.45;;;16.20;99.90;;;;;;5020416;28;20040;-70
2022/07/30 02:26:59;;;;;;;5.25;3.30;;;16.20;99.90;;;;;;5018210;28;20052;-70
2022/07/30 02:29:25;;;;;;;6.82;3.60;;;16.20;99.90;;;;;;4999040;28;20034;-71
2022/07/30 02:31:55;;;;;;;4.38;3.45;;;16.10;99.90;;;;;;5024733;28;20021;-71
2022/07/30 02:34:23;;;;;;;5.88;3.45;;;16.10;99.90;;;;;;5017743;28;20450;-71
2022/07/30 02:36:50;;;;;;;5.03;3.28;;;16.10;99.90;;;;;;5020240;28;20026;-71
2022/07/30 02:39:17;;;;;;;5.30;3.65;;;16.10;99.90;;;;;;5014852;28;20100;-71
2022/07/30 02:41:45;;;;;;;7.60;3.80;;;16.10;99.90;;;;;;5031662;28;20053;-71
2022/07/30 02:44:11;;;;;;;5.68;3.90;;;16.00;99.90;;;;;;5017399;28;20040;-71
2022/07/30 02:46:38;;;;;;;5.57;3.42;;;16.00;99.90;;;;;;5031621;28;20533;-71
2022/07/30 02:49:05;;;;;;;6.03;3.60;;;16.00;99.90;;;;;;5017096;28;20105;-71
2022/07/30 02:51:33;;;;;;;7.60;3.72;;;16.00;99.90;;;;;;5018170;28;20021;-70
2022/07/30 02:54:00;;;;;;;5.63;3.60;;;16.00;99.90;;;;;;5018333;28;20530;-71
2022/07/30 02:56:27;;;;;;;5.18;3.67;;;16.00;99.90;;;;;;5030394;28;20021;-70
2022/07/30 02:58:54;;;;;;;7.10;3.78;;;16.10;99.90;;;;;;5031328;28;20076;-71
2022/07/30 03:01:22;;;;;;;5.22;3.70;;;16.10;99.90;;;;;;5030881;28;20276;-71
2022/07/30 03:03:50;;;;;;;5.93;4.00;;;16.10;99.90;;;;;;5031381;28;20028;-71
2022/07/30 03:06:16;;;;;;;5.88;3.80;;;16.10;99.90;;;;;;5017101;28;20029;-71
2022/07/30 03:08:44;;;;;;;6.30;3.78;;;16.10;99.90;;;;;;5031085;28;20029;-71
2022/07/30 03:11:13;;;;;;;5.38;3.85;;;16.10;99.90;;;;;;5031025;28;20021;-71
2022/07/30 03:13:39;;;;;;;4.57;4.15;;;16.10;99.90;;;;;;5021518;28;20079;-71
2022/07/30 03:16:09;;;;;;;7.78;3.90;;;16.10;99.90;;;;;;5013172;28;20120;-71
2022/07/30 03:18:36;;;;;;;4.78;3.90;;;16.20;99.90;;;;;;5030855;28;20102;-71
2022/07/30 03:21:06;;;;;;;4.72;3.90;;;16.20;99.90;;;;;;5030655;28;20057;-72
2022/07/30 03:23:35;;;;;;;8.57;4.00;;;16.20;99.90;;;;;;5030673;28;20115;-71
2022/07/30 03:26:03;;;;;;;9.25;4.30;;;16.20;99.90;;;;;;5030963;28;20100;-71
2022/07/30 03:28:33;;;;;;;7.10;3.70;;;16.10;99.90;;;;;;5013671;28;20104;-71
2022/07/30 03:30:59;;;;;;;8.27;4.18;;;16.10;99.90;;;;;;5030294;28;20022;-71
2022/07/30 03:33:25;;;;;;;5.20;4.07;;;16.10;99.90;;;;;;5030697;28;20120;-72
2022/07/30 03:35:52;;;;;;;7.70;4.18;;;16.20;99.90;;;;;;5030464;28;20053;-71
2022/07/30 03:38:19;;;;;;;7.32;4.20;;;16.20;99.90;;;;;;5030482;28;20076;-71
2022/07/30 03:40:45;;;;;;;5.25;3.95;;;16.10;99.90;;;;;;5028527;28;20037;-71
2022/07/30 03:43:11;;;;;;;5.40;3.78;;;16.10;99.90;;;;;;5018737;28;20017;-72
2022/07/30 03:45:40;;;;;;;6.75;4.47;;;16.10;99.90;;;;;;5030463;28;20145;-71
2022/07/30 03:48:07;;;;;;;6.22;4.28;;;16.10;99.90;;;;;;5017210;28;20125;-71
2022/07/30 03:50:37;;;;;;;5.20;4.53;;;16.10;99.90;;;;;;5017671;28;20025;-71
2022/07/30 03:53:04;;;;;;;6.13;4.10;;;16.20;99.90;;;;;;5015430;28;20024;-71
2022/07/30 03:55:30;;;;;;;6.82;4.55;;;16.20;99.90;;;;;;5030191;28;20064;-71
2022/07/30 03:57:56;;;;;;;8.93;4.25;;;16.20;99.90;;;;;;5016651;28;20395;-71
2022/07/30 04:00:22;;;;;;;7.00;4.65;;;16.20;99.90;;;;;;5020461;28;20034;-72
2022/07/30 04:02:47;;;;;;;6.47;4.18;;;16.20;99.90;;;;;;5025856;28;20462;-71
2022/07/30 04:05:14;;;;;;;4.72;3.90;;;16.20;99.90;;;;;;5030462;28;20510;-71
2022/07/30 04:07:40;;;;;;;8.40;4.70;;;16.20;99.90;;;;;;5012498;28;20022;-71
2022/07/30 04:10:06;;;;;;;9.90;4.43;;;16.20;99.90;;;;;;5029684;28;20129;-71
2022/07/30 04:12:32;;;;;;;7.55;4.97;;;16.20;99.90;;;;;;5015774;28;20042;-71
2022/07/30 04:14:57;;;;;;;8.15;4.65;;;16.10;99.90;;;;;;5021958;28;20116;-71
2022/07/30 04:17:38;;;;;;;6.07;4.50;;;16.10;99.90;;;;;;5030104;28;20104;-72
2022/07/30 04:20:15;;;;;;;6.82;4.40;;;16.20;99.90;;;;;;5030024;28;20459;-72
2022/07/30 04:22:42;;;;;;;6.47;4.30;;;16.20;99.90;;;;;;5030067;28;20021;-71
2022/07/30 04:25:08;;;;;;;7.05;4.10;;;16.20;99.90;;;;;;5026285;28;20026;-71
2022/07/30 04:27:35;;;;;;;7.35;4.47;;;16.20;99.90;;;;;;5014082;28;20356;-71
2022/07/30 04:30:01;;;;;;;7.22;4.20;;;16.20;99.90;;;;;;5021896;28;20037;-71
2022/07/30 04:32:27;;;;;;;8.32;4.10;;;16.20;99.90;;;;;;5022807;28;20065;-73
2022/07/30 04:34:54;;;;;;;7.07;4.65;;;16.30;99.90;;;;;;4992149;28;20034;-73
2022/07/30 04:37:25;;;;;;;6.28;4.85;;;16.30;99.90;;;;;;5009419;28;20030;-73
2022/07/30 04:39:56;;;;;;;6.43;3.70;;;16.30;99.90;;;;;;5009764;28;20043;-73
2022/07/30 04:42:23;;;;;;;10.88;3.95;;;16.40;99.90;;;;;;5009518;28;20109;-72
2022/07/30 04:44:48;;;;;;;5.55;3.80;;;16.40;99.90;;;;;;5009909;28;20569;-73
2022/07/30 04:47:14;;;;;;;5.30;3.70;;;16.40;99.90;;;;;;5009758;28;20129;-73
2022/07/30 04:49:42;;;;;;;6.72;3.60;;;16.50;99.90;;;;;;5009592;28;20069;-73
2022/07/30 04:52:11;;;;;;;6.75;3.90;;;16.50;99.90;;;;;;5009770;28;20034;-73
2022/07/30 04:54:42;;;;;;;5.55;3.60;;;16.60;99.90;;;;;;5008030;28;20034;-73
2022/07/30 04:57:10;;;;;;;7.35;3.47;;;16.60;99.90;;;;;;5009361;28;20113;-73
2022/07/30 04:59:36;;;;;;;5.43;4.00;;;16.70;99.90;;;;;;5009255;28;20038;-73
2022/07/30 05:02:03;;;;;;;6.78;3.92;;;16.70;99.90;;;;;;5010721;28;20361;-73
2022/07/30 05:04:32;;;;;;;6.03;3.83;;;16.80;99.90;;;;;;5012875;28;20030;-73
2022/07/30 05:06:59;;;;;;;5.72;3.70;;;16.80;99.90;;;;;;5012906;28;20033;-73
2022/07/30 05:09:25;;;;;;;6.57;4.50;;;16.80;99.90;;;;;;5012435;28;20034;-73
2022/07/30 05:11:55;;;;;;;5.53;3.55;;;16.80;99.90;;;;;;5012172;28;20034;-73
2022/07/30 05:14:22;;;;;;;5.35;3.67;;;16.80;99.90;;;;;;5009725;28;20030;-75
2022/07/30 05:16:49;;;;;;;6.50;3.80;;;16.90;99.90;;;;;;5025034;28;20056;-73
2022/07/30 05:19:15;;;;;;;7.18;4.10;;;16.90;99.90;;;;;;4994769;28;20414;-73
2022/07/30 05:21:40;;;;;;;5.80;3.85;;;16.90;99.90;;;;;;5012611;28;20026;-73
2022/07/30 05:24:06;;;;;;;4.75;3.85;;;16.90;99.90;;;;;;5013112;28;20482;-74
2022/07/30 05:26:32;;;;;;;5.03;3.60;;;17.00;99.90;;;;;;5012532;28;20089;-75
2022/07/30 05:28:57;;;;;;;4.13;3.50;;;17.00;99.90;;;;;;5029298;28;20049;-74
2022/07/30 05:31:24;;;;;;;8.10;3.75;;;17.10;99.90;;;;;;5032437;28;20037;-67
2022/07/30 05:33:49;;;;;;;4.72;3.90;;;17.10;99.90;;;;;;5032114;28;20482;-67
2022/07/30 05:36:15;;;;;;;5.43;3.60;;;17.10;99.90;;;;;;5032436;28;20033;-67
2022/07/30 05:38:40;;;;;;;4.30;3.17;;;17.20;99.90;;;;;;5031777;28;20032;-69
2022/07/30 05:41:06;;;;;;;6.70;3.25;;;17.20;99.90;;;;;;5013084;28;20026;-68
2022/07/30 05:43:32;;;;;;;10.82;4.53;;;17.30;99.90;;;;;;5002282;28;20032;-68
2022/07/30 05:45:57;;;;;;;5.03;3.70;;;17.30;99.90;;;;;;5025678;28;20114;-68
2022/07/30 05:48:23;;;;;;;7.50;3.88;;;17.30;99.90;;;;;;5027241;28;20075;-68
2022/07/30 05:50:48;;;;;;;4.07;3.40;;;17.40;99.90;;;;;;5028885;28;20106;-68
2022/07/30 05:53:14;;;;;;;6.70;3.90;;;17.50;99.90;;;;;;5026430;28;20056;-67
2022/07/30 05:55:39;;;;;;;7.90;3.60;;;17.40;99.90;;;;;;5001047;28;20030;-68
2022/07/30 05:58:05;;;;;;;8.05;4.07;;;17.40;99.90;;;;;;5027795;28;20040;-68
2022/07/30 06:00:31;;;;;;;6.43;4.05;;;17.40;99.90;;;;;;5029874;28;20037;-67
2022/07/30 06:02:56;;;;;;;5.90;4.05;;;17.50;99.90;;;;;;5029583;28;20030;-68
2022/07/30 06:05:22;;;;;;;4.57;3.78;;;17.50;99.90;;;;;;5030846;28;20510;-67
2022/07/30 06:07:47;;;;;;;7.70;4.00;;;17.60;99.90;;;;;;5030605;28;20481;-68
2022/07/30 06:10:13;;;;;;;6.43;3.58;;;17.60;99.90;;;;;;5013424;28;20034;-68
2022/07/30 06:12:40;;;;;;;4.22;3.63;;;17.70;99.90;;;;;;5006517;28;20455;-68
2022/07/30 06:15:07;;;;;;;6.38;3.80;;;17.70;99.90;;;;;;5011396;28;20045;-68
2022/07/30 06:17:33;;;;;;;7.07;4.60;;;17.70;99.90;;;;;;5011930;28;20088;-68
2022/07/30 06:19:59;;;;;;;6.35;4.50;;;17.70;99.90;;;;;;5011456;28;20018;-69
2022/07/30 06:22:25;;;;;;;8.65;4.20;;;17.70;99.90;;;;;;5011975;28;20029;-68
2022/07/30 06:24:50;;;;;;;8.95;4.38;;;17.70;99.90;;;;;;5011310;28;20061;-68
2022/07/30 06:27:16;;;;;;;5.80;4.53;;;17.70;99.90;;;;;;5014782;28;20021;-68
2022/07/30 06:29:42;;;;;;;7.20;4.43;;;17.60;99.90;;;;;;5031354;28;20521;-68
2022/07/30 06:32:08;;;;;;;6.47;4.25;;;17.60;99.90;;;;;;5031127;28;20398;-68
2022/07/30 06:34:33;;;;;;;5.57;4.22;;;17.60;99.90;;;;;;5031427;28;20108;-69
2022/07/30 06:36:59;;;;;;;6.78;5.32;;;17.60;99.90;;;;;;5031171;28;20335;-69
2022/07/30 06:39:25;;;;;;;9.20;5.18;;;17.60;99.90;;;;;;5024807;28;20040;-68
2022/07/30 06:41:50;;;;;;;6.97;4.75;;;17.60;99.90;;;;;;5012935;28;20026;-68
2022/07/30 06:44:16;;;;;;;6.18;5.15;;;17.70;99.90;;;;;;4993298;28;20036;-69
2022/07/30 06:46:41;;;;;;;5.70;4.88;;;17.80;99.90;;;;;;5014421;28;20025;-69
2022/07/30 06:49:07;;;;;;;7.00;4.88;;;17.90;99.90;;;;;;4999354;28;20058;-73
2022/07/30 06:51:32;;;;;;;6.93;5.03;;;18.00;99.90;;;;;;5011634;28;20057;-68
2022/07/30 06:53:58;;;;;;;7.38;4.75;;;18.20;99.90;;;;;;5011392;28;20033;-68
2022/07/30 06:56:23;;;;;;;8.55;5.85;;;18.40;99.90;;;;;;5010882;28;20110;-69
2022/07/30 06:58:49;;;;;;;8.27;5.28;;;18.50;99.90;;;;;;5010815;28;20053;-69
2022/07/30 07:01:14;;;;;;;7.60;5.80;;;18.50;99.90;;;;;;4992615;28;20460;-69
2022/07/30 07:03:40;;;;;;;7.07;5.55;;;18.60;99.90;;;;;;5010803;28;20627;-68
2022/07/30 07:06:06;;;;;;;9.60;5.50;;;18.70;99.90;;;;;;5010783;28;20089;-68
2022/07/30 07:08:34;;;;;;;10.30;5.55;;;18.90;99.90;;;;;;5010547;28;20030;-68
2022/07/30 07:10:59;;;;;;;11.07;5.88;;;19.00;99.90;;;;;;5010622;28;20026;-68
2022/07/30 07:13:25;;;;;;;9.18;6.10;;;19.10;99.90;;;;;;5005386;28;20044;-68
2022/07/30 07:15:50;;;;;;;8.27;5.90;;;19.10;99.90;;;;;;5010415;28;20105;-69
2022/07/30 07:18:16;;;;;;;9.70;6.93;;;19.10;99.90;;;;;;5010451;28;20026;-69
2022/07/30 07:20:42;;;;;;;8.30;6.30;;;19.10;99.90;;;;;;5010329;28;20089;-68
2022/07/30 07:23:08;;;;;;;9.60;5.70;;;19.20;99.90;;;;;;5010365;28;20053;-69
2022/07/30 07:25:33;;;;;;;7.28;5.57;;;19.20;99.90;;;;;;5011469;28;20057;-68
2022/07/30 07:27:59;;;;;;;10.50;5.90;;;19.50;99.90;;;;;;5012767;28;20049;-67
2022/07/30 07:30:24;;;;;;;13.05;7.05;;;19.50;99.90;;;;;;5012895;28;20034;-69
2022/07/30 07:32:50;;;;;;;11.82;5.72;;;19.60;99.90;;;;;;5025019;28;20371;-68
2022/07/30 07:35:16;;;;;;;8.65;6.03;;;19.70;99.90;;;;;;5014617;28;20025;-68
2022/07/30 07:37:41;;;;;;;9.43;5.57;;;19.80;99.90;;;;;;4994611;28;20386;-66
2022/07/30 07:40:07;;;;;;;14.48;7.47;;;20.00;99.90;;;;;;5011720;28;20033;-66
2022/07/30 07:42:33;;;;;;;12.05;6.40;;;20.10;99.90;;;;;;5011863;28;20026;-67
2022/07/30 07:44:58;;;;;;;8.77;5.43;;;20.10;99.90;;;;;;5011916;28;20029;-68
2022/07/30 07:47:24;;;;;;;8.30;5.93;;;20.10;99.90;;;;;;5009896;28;20387;-67
2022/07/30 07:49:53;;;;;;;9.52;5.82;;;20.20;99.90;;;;;;5000239;28;20429;-68
2022/07/30 07:52:18;;;;;;;8.82;5.55;;;20.40;99.90;;;;;;5013243;28;20137;-67
2022/07/30 07:54:44;;;;;;;9.48;5.45;;;20.40;99.90;;;;;;5011756;28;20464;-66
2022/07/30 07:57:10;;;;;;;9.88;5.80;;;20.30;99.90;;;;;;4999717;28;20547;-67
2022/07/30 07:59:36;;;;;;;13.05;5.70;;;20.40;99.90;;;;;;5016198;28;20047;-67
2022/07/30 08:02:01;;;;;;;9.82;4.93;;;20.40;99.90;;;;;;5001276;28;20431;-67
2022/07/30 08:04:27;;;;;;;7.93;4.93;;;20.40;99.90;;;;;;5008982;28;20451;-67
2022/07/30 08:06:53;;;;;;;9.52;5.72;;;20.40;99.90;;;;;;5001989;28;20530;-66
2022/07/30 08:09:18;;;;;;;8.95;5.13;;;20.50;99.90;;;;;;5017171;28;20025;-68
2022/07/30 08:11:44;;;;;;;9.20;4.78;;;20.60;99.90;;;;;;5016490;28;20375;-75
2022/07/30 08:14:09;;;;;;;8.65;5.28;;;20.50;99.90;;;;;;5018263;28;20455;-65
2022/07/30 08:16:35;;;;;;;10.07;5.18;;;20.50;99.90;;;;;;5017496;28;20029;-66
2022/07/30 08:19:00;;;;;;;9.52;5.07;;;20.60;99.90;;;;;;5017499;28;20121;-66
2022/07/30 08:21:26;;;;;;;7.97;4.78;;;20.70;99.90;;;;;;5022911;28;20033;-67
2022/07/30 08:23:52;;;;;;;8.43;5.13;;;20.80;99.90;;;;;;5006305;28;20023;-68
2022/07/30 08:26:17;;;;;;;11.20;5.15;;;20.90;99.90;;;;;;5021648;28;20021;-67
2022/07/30 08:28:44;;;;;;;8.27;4.63;;;21.10;99.90;;;;;;5024169;28;20024;-67
2022/07/30 08:31:10;;;;;;;7.82;4.32;;;21.20;99.90;;;;;;5021375;28;20024;-66
2022/07/30 08:33:35;;;;;;;6.13;4.03;;;21.30;99.90;;;;;;5021786;28;20026;-70
2022/07/30 08:36:01;;;;;;;15.88;4.40;;;21.40;99.90;;;;;;5027744;28;20025;-67
2022/07/30 08:38:26;;;;;;;7.15;4.95;;;21.50;99.90;;;;;;5027940;28;20030;-67
2022/07/30 08:40:54;;;;;;;12.18;4.80;;;21.60;99.90;;;;;;5031209;28;20017;-67
2022/07/30 08:43:20;;;;;;;7.78;4.40;;;21.70;99.90;;;;;;5032754;28;20071;-75
2022/07/30 08:45:46;;;;;;;10.15;3.95;;;21.90;99.90;;;;;;5032142;28;20352;-75
2022/07/30 08:48:13;;;;;;;11.02;5.00;;;22.00;99.90;;;;;;5016864;28;20033;-71
2022/07/30 08:50:39;;;;;;;6.85;4.20;;;22.00;99.90;;;;;;5016573;28;20022;-72
2022/07/30 08:53:05;;;;;;;7.22;3.90;;;22.10;99.90;;;;;;5016031;28;20044;-67
2022/07/30 08:55:31;;;;;;;7.10;3.85;;;22.20;99.90;;;;;;5014112;28;20057;-74
2022/07/30 08:57:57;;;;;;;6.60;3.83;;;22.20;99.90;;;;;;5020385;28;20501;-65
2022/07/30 09:00:23;;;;;;;7.72;3.83;;;22.20;99.90;;;;;;5021905;28;20029;-65
2022/07/30 09:02:48;;;;;;;7.63;3.60;;;22.30;99.90;;;;;;5013725;28;20041;-67
2022/07/30 09:05:14;;;;;;;10.82;3.78;;;22.40;99.90;;;;;;5014822;28;20030;-66
2022/07/30 09:07:41;;;;;;;5.45;3.40;;;22.40;99.90;;;;;;5021213;28;20032;-67
2022/07/30 09:10:08;;;;;;;11.88;4.32;;;22.50;99.90;;;;;;5030515;28;20028;-68
2022/07/30 09:12:42;;;;;;;8.70;4.20;;;22.60;99.90;;;;;;5015905;28;20046;-71
2022/07/30 09:15:16;;;;;;;8.38;3.45;;;22.70;99.90;;;;;;5013280;28;20028;-71
2022/07/30 09:17:48;;;;;;;6.85;3.40;;;22.80;99.90;;;;;;4995502;28;20394;-68
2022/07/30 09:20:14;;;;;;;6.70;3.15;;;22.90;99.90;;;;;;5005762;28;20033;-68
2022/07/30 09:22:51;;;;;;;5.85;3.35;;;22.90;99.90;;;;;;5004252;28;20033;-68
2022/07/30 09:25:38;;;;;;;5.82;3.30;;;23.00;99.90;;;;;;5013001;28;20014;-71
2022/07/30 09:28:05;;;;;;;5.93;3.20;;;23.10;99.90;;;;;;5009500;28;20030;-71
2022/07/30 09:30:53;;;;;;;4.50;2.85;;;23.20;99.90;;;;;;5010086;28;20056;-70
2022/07/30 09:33:34;;;;;;;6.82;3.10;;;23.30;99.90;;;;;;5001977;28;20837;-69
2022/07/30 09:36:03;;;;;;;9.98;3.60;;;23.50;99.90;;;;;;5009734;28;20538;-70
2022/07/30 09:40:58;;;;;;;6.10;3.28;;;23.60;99.90;;;;;;5035815;23;20218;-69
2022/07/30 09:43:25;;;;;;;6.72;3.00;;;23.70;99.90;;;;;;5027071;28;20037;-70
2022/07/30 09:45:53;;;;;;;5.00;2.95;;;24.00;99.90;;;;;;5028414;28;20024;-69
2022/07/30 09:48:26;;;;;;;5.50;2.80;;;24.30;99.90;;;;;;5029615;28;20014;-69
2022/07/30 09:50:54;;;;;;;6.25;3.10;;;24.50;99.90;;;;;;5028008;28;20021;-69
2022/07/30 09:56:24;;;;;;;6.80;2.50;;;24.60;99.90;;;;;;5015857;23;20089;-72
2022/07/30 09:58:49;;;;;;;4.25;2.50;;;24.70;99.90;;;;;;4989276;28;20030;-71
2022/07/30 10:01:15;;;;;;;5.55;2.70;;;24.60;99.90;;;;;;4983716;28;20026;-71
2022/07/30 10:03:42;;;;;;;6.85;2.70;;;24.60;99.90;;;;;;4985665;28;20027;-71
2022/07/30 10:06:09;;;;;;;5.40;2.45;;;24.70;99.90;;;;;;4984065;28;20026;-71
2022/07/30 10:08:40;;;;;;;5.95;2.40;;;25.00;99.90;;;;;;4967973;28;20423;-71
2022/07/30 10:11:10;;;;;;;5.95;2.38;;;25.10;99.90;;;;;;4993194;23;20050;-72
2022/07/30 10:13:37;;;;;;;7.47;2.33;;;25.20;99.90;;;;;;4987444;28;20042;-71
2022/07/30 10:16:04;;;;;;;3.63;2.10;;;25.30;99.90;;;;;;4992049;28;20136;-71
2022/07/30 10:18:30;;;;;;;4.55;2.53;;;25.30;99.90;;;;;;4986725;28;20031;-71
2022/07/30 10:20:56;;;;;;;4.38;2.30;;;25.10;99.90;;;;;;4985507;28;20054;-76
2022/07/30 10:23:23;;;;;;;6.75;2.42;;;25.20;99.90;;;;;;4988957;28;20023;-72
2022/07/30 10:25:53;;;;;;;5.43;2.13;;;25.40;99.90;;;;;;4984086;28;20027;-70
2022/07/30 10:28:19;;;;;;;4.68;2.47;;;25.70;99.90;;;;;;4991196;28;20639;-71
2022/07/30 10:30:49;;;;;;;7.35;2.25;;;25.80;99.90;;;;;;5000401;28;20057;-70
2022/07/30 10:33:15;;;;;;;4.53;2.30;;;25.90;99.90;;;;;;4999188;28;20412;-70
2022/07/30 10:35:40;;;;;;;4.05;1.77;;;25.90;99.90;;;;;;5000076;28;20097;-71
2022/07/30 10:38:11;;;;;;;4.70;1.90;;;25.70;99.90;;;;;;4998538;28;20125;-70
2022/07/30 10:40:47;;;;;;;5.97;2.00;;;25.70;99.90;;;;;;4998007;28;20824;-70
2022/07/30 10:43:27;;;;;;;3.10;1.90;;;25.90;99.90;;;;;;4999189;28;20037;-70
2022/07/30 10:45:56;;;;;;;4.82;1.90;;;26.10;99.90;;;;;;4999285;28;20588;-70
2022/07/30 10:48:22;;;;;;;4.28;1.90;;;26.30;99.90;;;;;;4997525;28;20054;-71
2022/07/30 10:50:53;;;;;;;6.43;2.28;;;26.40;99.90;;;;;;4996440;28;20108;-71
2022/07/30 10:53:36;;;;;;;5.07;2.13;;;26.40;99.90;;;;;;4998505;28;20207;-70
2022/07/30 10:56:22;;;;;;;5.53;2.13;;;26.40;99.90;;;;;;4999336;28;20026;-70
2022/07/30 10:59:06;;;;;;;4.70;1.98;;;26.10;99.90;;;;;;4998684;28;20023;-71
2022/07/30 11:01:47;;;;;;;5.80;1.90;;;26.10;99.90;;;;;;4998826;28;20042;-71
2022/07/30 11:04:26;;;;;;;4.97;1.88;;;26.20;99.90;;;;;;4998131;28;20069;-71
2022/07/30 11:07:21;;;;;;;4.40;2.10;;;26.40;99.90;;;;;;5001380;28;20037;-71
2022/07/30 11:09:48;;;;;;;6.05;2.03;;;26.60;99.90;;;;;;4998848;28;20498;-71
2022/07/30 11:12:13;;;;;;;7.45;2.08;;;26.70;99.90;;;;;;4998274;28;20042;-72
2022/07/30 11:14:59;;;;;;;5.55;1.92;;;26.90;99.90;;;;;;4998458;28;20037;-71
2022/07/30 11:17:25;;;;;;;9.18;2.20;;;27.00;99.90;;;;;;4999529;28;20462;-71
2022/07/30 11:20:06;;;;;;;3.17;1.95;;;26.80;99.90;;;;;;4999472;28;20129;-71
2022/07/30 11:22:40;;;;;;;3.85;2.00;;;26.80;99.90;;;;;;4998928;28;20142;-70
2022/07/30 11:25:05;;;;;;;10.13;2.20;;;27.20;99.90;;;;;;4999478;28;20101;-70
2022/07/30 11:27:47;;;;;;;13.68;2.40;;;27.60;99.90;;;;;;4997998;28;20805;-70
2022/07/30 11:30:15;;;;;;;6.97;2.63;;;27.40;99.90;;;;;;4990486;28;20030;-71
2022/07/30 11:32:45;;;;;;;11.80;2.30;;;26.90;99.90;;;;;;4991098;28;20488;-71
2022/07/30 11:35:15;;;;;;;5.88;2.60;;;26.20;99.90;;;;;;4991402;28;20140;-70
2022/07/30 11:38:08;;;;;;;4.97;2.28;;;25.80;99.90;;;;;;4991250;28;20030;-70
2022/07/30 11:40:35;;;;;;;4.18;2.15;;;25.60;99.90;;;;;;4991642;28;20038;-70
2022/07/30 11:43:24;;;;;;;6.22;2.53;;;25.40;99.90;;;;;;4991524;28;20107;-70
2022/07/30 11:46:04;;;;;;;3.88;2.30;;;24.90;99.90;;;;;;4990329;28;20034;-71
2022/07/30 11:48:31;;;;;;;4.70;2.10;;;24.80;99.90;;;;;;4991236;28;20085;-70
2022/07/30 11:50:56;;;;;;;5.00;2.30;;;25.00;99.90;;;;;;4991196;28;20434;-70
2022/07/30 11:53:22;;;;;;;3.53;2.08;;;25.60;99.90;;;;;;4993069;28;20106;-70
2022/07/30 11:55:54;;;;;;;4.90;2.00;;;25.90;99.90;;;;;;4991121;28;20415;-71
2022/07/30 11:58:30;;;;;;;5.00;1.85;;;25.80;99.90;;;;;;4997749;28;20049;-70
2022/07/30 12:01:02;;;;;;;2.97;1.83;;;25.90;99.90;;;;;;4991022;28;20030;-70
2022/07/30 12:03:32;;;;;;;3.45;1.95;;;26.10;99.90;;;;;;4991196;28;20031;-69
2022/07/30 12:06:06;;;;;;;3.35;1.50;;;26.60;99.90;;;;;;4985719;28;20029;-70
2022/07/30 12:08:42;;;;;;;4.88;1.75;;;27.10;99.60;;;;;;4991134;28;20026;-70
2022/07/30 12:11:08;;;;;;;4.55;2.25;;;27.50;98.50;;;;;;4987661;28;20050;-70
2022/07/30 12:13:34;;;;;;;3.92;1.70;;;27.70;98.30;;;;;;4993185;28;20387;-69
2022/07/30 12:15:59;;;;;;;4.53;1.67;;;28.00;99.30;;;;;;4994971;28;20022;-69
2022/07/30 12:18:29;;;;;;;2.92;1.50;;;28.40;97.20;;;;;;4994963;28;20026;-70
2022/07/30 12:21:03;;;;;;;3.88;1.45;;;28.90;95.70;;;;;;4995019;28;20045;-70
2022/07/30 12:23:29;;;;;;;;;;;29.10;95.40;;;;;;4982107;28;20030;-70
2022/07/30 12:25:57;;;;;;;2.67;1.52;;;29.30;92.60;;;;;;4995047;28;19910;-70
2022/07/30 12:28:25;;;;;;;2.67;1.55;;;29.50;92.10;;;;;;4994699;28;20030;-70
2022/07/30 12:30:52;;;;;;;4.20;1.65;;;29.30;91.30;;;;;;4995062;28;20026;-71
2022/07/30 12:33:19;;;;;;;6.97;1.70;;;28.90;90.90;;;;;;4994680;28;20078;-70
2022/07/30 12:35:52;;;;;;;3.97;1.38;;;28.60;91.20;;;;;;4994902;28;20030;-70
2022/07/30 12:38:19;;;;;;;4.63;1.88;;;28.40;92.00;;;;;;4994325;28;20035;-71
2022/07/30 12:40:57;;;;;;;2.55;1.55;;;27.90;91.50;;;;;;4994803;28;20030;-71
2022/07/30 12:44:01;;;;;;;2.85;1.70;;;27.40;91.20;;;;;;4994683;28;20023;-70
2022/07/30 12:46:27;;;;;;;4.70;1.60;;;27.30;92.80;;;;;;4910572;29;20029;-70
2022/07/30 12:48:55;;;;;;;5.10;1.95;;;27.30;92.20;;;;;;4915237;29;20040;-71
2022/07/30 12:51:23;;;;;;;5.00;1.60;;;26.80;92.10;;;;;;4946364;28;20039;-70
2022/07/30 12:53:50;;;;;;;3.42;1.60;;;26.40;92.90;;;;;;4994499;28;20026;-70
2022/07/30 12:56:18;;;;;;;3.78;1.80;;;26.20;94.40;;;;;;4994512;28;20021;-70
2022/07/30 12:58:44;;;;;;;3.30;1.60;;;26.40;93.30;;;;;;4994034;28;20019;-70
2022/07/30 13:01:10;;;;;;;7.65;1.88;;;26.70;93.10;;;;;;4993729;28;20026;-72